Time;durP1;ratioP1;P1;durP2;ratioP2;P2;SDS_P1;SDS_P2;PMS_P1;PMS_P2;Temp;Humidity;BMP_temperature;BMP_pressure;BME280_temperature;BME280_humidity;BME280_pressure;Samples;Min_cycle;Max_cycle;Signal;HPM_P1;HPM_P2
2023/03/04 00:01:58;;;;;;;;;;;;;;;3.97;100.00;101106.25;4970511;28;20034;-73
2023/03/04 00:04:23;;;;;;;12.38;3.20;;;;;;;3.89;100.00;101103.31;4987710;28;19913;-71
2023/03/04 00:06:49;;;;;;;15.57;3.03;;;;;;;3.96;100.00;101094.00;4985522;28;20488;-73
2023/03/04 00:09:14;;;;;;;17.80;2.43;;;;;;;4.01;100.00;101089.22;4968751;28;20027;-73
2023/03/04 00:11:39;;;;;;;9.97;1.50;;;;;;;4.05;100.00;101077.47;4984233;28;20518;-73
2023/03/04 00:14:04;;;;;;;20.57;3.63;;;;;;;4.03;100.00;101068.81;4967827;28;20428;-73
2023/03/04 00:16:30;;;;;;;14.70;1.90;;;;;;;3.99;100.00;101062.91;4985440;28;20097;-73
2023/03/04 00:18:56;;;;;;;7.60;2.10;;;;;;;4.03;100.00;101074.09;4986582;28;20049;-73
2023/03/04 00:21:22;;;;;;;8.88;2.05;;;;;;;4.18;100.00;101072.97;4987383;28;20030;-70
2023/03/04 00:23:48;;;;;;;16.83;3.25;;;;;;;4.23;100.00;101038.25;4987770;28;20370;-73
2023/03/04 00:26:13;;;;;;;7.90;1.90;;;;;;;4.22;100.00;101034.78;4987045;28;20113;-73
2023/03/04 00:28:41;;;;;;;10.32;2.70;;;;;;;4.20;100.00;100997.06;4985876;28;20507;-71
2023/03/04 00:31:07;;;;;;;15.80;1.65;;;;;;;4.19;100.00;100981.31;4967275;28;20085;-73
2023/03/04 00:33:33;;;;;;;11.13;2.80;;;;;;;4.09;100.00;100960.00;4985592;28;20046;-73
2023/03/04 00:35:59;;;;;;;7.10;1.30;;;;;;;4.06;100.00;100967.34;4969435;28;20019;-71
2023/03/04 00:38:24;;;;;;;12.43;2.00;;;;;;;4.03;100.00;100965.78;4967982;28;20070;-71
2023/03/04 00:40:50;;;;;;;10.02;2.58;;;;;;;4.06;100.00;100965.53;4968714;28;20029;-74
2023/03/04 00:43:15;;;;;;;10.17;2.37;;;;;;;4.06;100.00;100962.91;4969112;28;20697;-73
2023/03/04 00:45:40;;;;;;;11.50;1.60;;;;;;;4.09;100.00;100978.50;4985259;28;20038;-72
2023/03/04 00:48:06;;;;;;;10.10;2.50;;;;;;;4.10;100.00;100977.56;4986166;28;20040;-70
2023/03/04 00:50:32;;;;;;;12.68;2.50;;;;;;;4.17;100.00;100980.59;4984214;28;20074;-73
2023/03/04 00:52:57;;;;;;;10.02;1.83;;;;;;;4.19;100.00;100971.59;4969393;28;20027;-73
2023/03/04 00:55:23;;;;;;;12.23;2.28;;;;;;;4.19;100.00;100962.81;4968470;28;20569;-71
2023/03/04 00:57:48;;;;;;;11.30;2.75;;;;;;;4.19;100.00;100968.94;4985292;28;20038;-73
2023/03/04 01:00:14;;;;;;;11.63;1.98;;;;;;;4.21;100.00;100974.97;4984667;28;20034;-73
2023/03/04 01:02:40;;;;;;;22.10;2.30;;;;;;;4.29;100.00;100966.44;4968835;28;20440;-73
2023/03/04 01:05:07;;;;;;;10.35;1.58;;;;;;;4.36;100.00;100967.66;4985027;28;20023;-70
2023/03/04 01:07:32;;;;;;;13.93;2.63;;;;;;;4.41;100.00;100941.72;4968615;28;20123;-73
2023/03/04 01:09:57;;;;;;;14.00;1.77;;;;;;;4.38;100.00;100928.75;4968660;28;20030;-73
2023/03/04 01:12:23;;;;;;;14.90;2.13;;;;;;;4.36;100.00;100927.19;4968292;28;20034;-73
2023/03/04 01:14:48;;;;;;;9.70;1.73;;;;;;;4.40;100.00;100925.97;4984783;28;20042;-72
2023/03/04 01:17:14;;;;;;;9.98;2.92;;;;;;;4.34;100.00;100913.22;4968185;28;20041;-73
2023/03/04 01:19:40;;;;;;;11.35;1.85;;;;;;;4.33;100.00;100932.69;4984870;28;20030;-74
2023/03/04 01:22:05;;;;;;;10.60;1.60;;;;;;;4.37;100.00;100942.06;4981783;28;20034;-72
2023/03/04 01:24:31;;;;;;;10.23;1.70;;;;;;;4.35;100.00;100936.88;4981285;28;20034;-70
2023/03/04 01:26:56;;;;;;;17.63;2.77;;;;;;;4.37;100.00;100939.44;4952278;28;20045;-70
2023/03/04 01:29:21;;;;;;;14.40;2.17;;;;;;;4.41;100.00;100935.59;4968122;28;20308;-70
2023/03/04 01:31:47;;;;;;;9.63;2.30;;;;;;;4.53;100.00;100932.00;4967980;28;20030;-73
2023/03/04 01:34:12;;;;;;;8.40;1.43;;;;;;;4.49;100.00;100909.38;4966475;28;20023;-73
2023/03/04 01:36:37;;;;;;;15.73;2.07;;;;;;;4.46;100.00;100904.34;4957238;28;20098;-71
2023/03/04 01:39:03;;;;;;;5.43;1.77;;;;;;;4.49;100.00;100911.19;4967748;28;20093;-73
2023/03/04 01:41:29;;;;;;;20.08;3.55;;;;;;;4.51;100.00;100910.13;4984271;28;20503;-73
2023/03/04 01:43:59;;;;;;;11.50;2.22;;;;;;;4.46;100.00;100907.00;4968106;28;20049;-73
2023/03/04 01:46:25;;;;;;;11.25;2.03;;;;;;;4.56;100.00;100913.22;4950291;28;20034;-73
2023/03/04 01:48:51;;;;;;;9.02;2.00;;;;;;;4.51;100.00;100896.91;4984024;28;20037;-72
2023/03/04 01:51:18;;;;;;;14.43;2.03;;;;;;;4.53;100.00;100905.56;4967991;28;20491;-70
2023/03/04 01:53:46;;;;;;;18.17;1.95;;;;;;;4.56;100.00;100909.75;4968188;28;20038;-72
2023/03/04 01:56:18;;;;;;;18.10;2.58;;;;;;;4.51;100.00;100915.41;4962925;28;20042;-71
2023/03/04 01:58:44;;;;;;;19.42;3.10;;;;;;;4.46;100.00;100928.16;4982487;28;20045;-73
2023/03/04 02:01:11;;;;;;;20.27;3.75;;;;;;;4.54;100.00;100941.63;4982329;28;20026;-73
2023/03/04 02:03:37;;;;;;;14.68;1.80;;;;;;;4.57;100.00;100957.25;4983996;28;20053;-72
2023/03/04 02:06:03;;;;;;;13.23;2.67;;;;;;;4.55;100.00;100963.63;4967390;28;20041;-71
2023/03/04 02:08:28;;;;;;;5.65;1.77;;;;;;;4.43;100.00;100966.25;4971608;28;20046;-73
2023/03/04 02:10:55;;;;;;;9.95;1.77;;;;;;;4.43;100.00;100989.19;4983685;28;20108;-73
2023/03/04 02:13:21;;;;;;;17.77;2.47;;;;;;;4.42;100.00;101013.94;4967974;28;20157;-73
2023/03/04 02:15:47;;;;;;;13.43;2.40;;;;;;;4.46;100.00;101033.91;4967574;28;20050;-71
2023/03/04 02:18:22;;;;;;;13.57;2.25;;;;;;;4.46;100.00;101020.69;4983444;28;20049;-71
2023/03/04 02:20:53;;;;;;;18.98;2.40;;;;;;;4.56;100.00;101039.31;4975213;28;20218;-73
2023/03/04 02:23:27;;;;;;;12.50;1.80;;;;;;;4.53;100.00;101015.78;4967710;28;20039;-74
2023/03/04 02:26:19;;;;;;;9.15;2.00;;;;;;;4.48;100.00;101010.84;4983294;28;20034;-72
2023/03/04 02:28:50;;;;;;;13.00;2.60;;;;;;;4.56;100.00;101008.44;4966431;28;20034;-73
2023/03/04 02:31:23;;;;;;;11.07;2.08;;;;;;;4.54;100.00;100977.78;4983033;28;20104;-71
2023/03/04 02:33:50;;;;;;;9.63;3.05;;;;;;;4.53;100.00;100970.81;4967530;28;20053;-73
2023/03/04 02:36:16;;;;;;;11.48;2.83;;;;;;;4.53;100.00;100965.53;4967752;28;20644;-70
2023/03/04 02:38:41;;;;;;;8.10;1.58;;;;;;;4.48;100.00;100960.59;4967572;28;20034;-73
2023/03/04 02:41:12;;;;;;;10.82;2.53;;;;;;;4.52;100.00;100963.84;4965224;28;20468;-74
2023/03/04 02:43:38;;;;;;;8.98;1.48;;;;;;;4.49;100.00;100972.84;4980380;28;20455;-73
2023/03/04 02:46:04;;;;;;;8.25;2.20;;;;;;;4.59;100.00;100997.66;4951048;28;20029;-72
2023/03/04 02:48:30;;;;;;;12.00;2.10;;;;;;;4.55;100.00;100985.59;4980272;28;20034;-73
2023/03/04 02:50:56;;;;;;;9.50;1.80;;;;;;;4.54;100.00;100981.28;4973008;28;20029;-71
2023/03/04 02:53:21;;;;;;;6.63;1.60;;;;;;;4.57;100.00;100983.69;4987160;28;20038;-71
2023/03/04 02:55:48;;;;;;;12.80;1.70;;;;;;;4.58;100.00;100964.22;4965939;28;20061;-73
2023/03/04 02:58:13;;;;;;;9.32;1.73;;;;;;;4.58;100.00;100948.34;4970789;28;20479;-74
2023/03/04 03:00:39;;;;;;;8.07;0.98;;;;;;;4.59;100.00;100943.91;4986934;28;20491;-74
2023/03/04 03:03:06;;;;;;;16.35;1.63;;;;;;;4.59;100.00;100920.94;4955254;28;20149;-71
2023/03/04 03:05:35;;;;;;;14.15;3.05;;;;;;;4.63;100.00;100903.88;4986358;28;20069;-72
2023/03/04 03:08:01;;;;;;;8.65;1.50;;;;;;;4.61;100.00;100879.38;4970747;28;20077;-70
2023/03/04 03:10:27;;;;;;;6.10;1.10;;;;;;;4.54;100.00;100866.72;4984808;28;20034;-73
2023/03/04 03:12:52;;;;;;;12.75;2.00;;;;;;;4.51;100.00;100862.53;4986797;28;20036;-74
2023/03/04 03:15:18;;;;;;;15.13;1.77;;;;;;;4.56;100.00;100848.94;4970224;28;20026;-72
2023/03/04 03:17:44;;;;;;;9.00;1.77;;;;;;;4.56;100.00;100831.25;4986637;28;20046;-73
2023/03/04 03:20:11;;;;;;;4.82;1.02;;;;;;;4.53;100.00;100807.72;4970529;28;20270;-74
2023/03/04 03:22:37;;;;;;;10.95;2.05;;;;;;;4.61;100.00;100805.31;4978103;28;20042;-73
2023/03/04 03:25:04;;;;;;;11.57;1.85;;;;;;;4.64;100.00;100761.91;4967358;28;20050;-74
2023/03/04 03:27:29;;;;;;;;;;;;;;;4.59;100.00;100722.63;4970237;28;20046;-73
2023/03/04 03:29:54;;;;;;;14.50;2.25;;;;;;;4.57;100.00;100673.47;4986337;28;20291;-73
2023/03/04 03:32:20;;;;;;;10.15;2.40;;;;;;;4.54;100.00;100639.34;4970078;28;20419;-73
2023/03/04 03:34:49;;;;;;;12.10;2.05;;;;;;;4.60;100.00;100602.66;4986500;28;20057;-73
2023/03/04 03:37:15;;;;;;;13.05;2.05;;;;;;;4.55;100.00;100559.06;4970082;28;20460;-73
2023/03/04 03:39:40;;;;;;;10.85;2.65;;;;;;;4.61;100.00;100526.81;4984715;28;20038;-74
2023/03/04 03:42:06;;;;;;;12.40;2.47;;;;;;;4.57;100.00;100483.09;4970274;28;20030;-70
2023/03/04 03:44:31;;;;;;;7.82;2.20;;;;;;;4.52;100.00;100445.63;4986002;28;20038;-73
2023/03/04 03:46:57;;;;;;;9.03;2.40;;;;;;;4.54;100.00;100439.25;4970114;28;20046;-72
2023/03/04 03:49:22;;;;;;;10.33;2.67;;;;;;;4.52;100.00;100422.69;4970107;28;20307;-74
2023/03/04 03:51:48;;;;;;;10.77;2.00;;;;;;;4.51;100.00;100421.00;4973493;28;20050;-73
2023/03/04 03:54:13;;;;;;;12.10;2.40;;;;;;;4.43;100.00;100363.50;4983966;28;20040;-73
2023/03/04 03:56:38;;;;;;;7.87;2.57;;;;;;;4.40;100.00;100323.25;4983521;28;20066;-74
2023/03/04 03:59:04;;;;;;;11.67;2.47;;;;;;;4.40;100.00;100283.63;4985783;28;20030;-73
2023/03/04 04:01:29;;;;;;;21.20;2.87;;;;;;;4.39;100.00;100245.78;4984805;28;20038;-73
2023/03/04 04:03:54;;;;;;;19.10;3.57;;;;;;;4.42;100.00;100173.31;4987217;28;20030;-74
2023/03/04 04:06:20;;;;;;;11.30;2.73;;;;;;;4.39;100.00;100118.91;4985175;28;20805;-73
2023/03/04 04:08:45;;;;;;;13.05;2.30;;;;;;;4.48;100.00;100022.09;4977183;28;20038;-74
2023/03/04 04:11:11;;;;;;;14.23;3.10;;;;;;;4.39;100.00;99933.06;4953241;28;20076;-70
2023/03/04 04:13:37;;;;;;;21.08;3.45;;;;;;;4.36;100.00;99906.94;4969695;28;20053;-74
2023/03/04 04:16:02;;;;;;;18.70;2.53;;;;;;;4.44;100.00;99915.81;4969484;28;20490;-74
2023/03/04 04:18:28;;;;;;;13.52;2.92;;;;;;;4.33;100.00;99917.78;4985930;28;20038;-73
2023/03/04 04:20:53;;;;;;;20.93;3.10;;;;;;;4.35;100.00;99980.06;4986361;28;20335;-71
2023/03/04 04:23:19;;;;;;;15.57;2.72;;;;;;;4.42;100.00;99985.63;4985659;28;20117;-71
2023/03/04 04:25:45;;;;;;;24.58;3.35;;;;;;;4.40;100.00;99966.44;4983359;28;20158;-72
2023/03/04 04:28:10;;;;;;;13.38;3.45;;;;;;;4.37;100.00;100003.75;4983883;28;20057;-72
2023/03/04 04:30:35;;;;;;;17.87;3.57;;;;;;;4.42;100.00;100033.22;4985210;28;20521;-71
2023/03/04 04:33:03;;;;;;;20.13;2.83;;;;;;;4.40;100.00;100053.66;4983743;28;20052;-74
2023/03/04 04:35:29;;;;;;;17.38;2.40;;;;;;;4.41;100.00;100100.28;4968834;28;20794;-72
2023/03/04 04:37:55;;;;;;;;;;;;;;;4.43;100.00;100124.78;4985571;28;20038;-72
2023/03/04 04:40:21;;;;;;;40.28;3.42;;;;;;;4.28;100.00;100131.41;4983921;28;19923;-75
2023/03/04 04:42:46;;;;;;;16.63;3.07;;;;;;;4.27;100.00;100187.91;4981993;28;20042;-73
2023/03/04 04:45:11;;;;;;;12.17;2.40;;;;;;;4.35;100.00;100223.22;4981266;28;20312;-71
2023/03/04 04:47:37;;;;;;;15.27;4.53;;;;;;;4.37;100.00;100223.09;4985305;28;20034;-73
2023/03/04 04:50:03;;;;;;;23.83;3.73;;;;;;;4.28;100.00;100136.69;4953055;28;20786;-71
2023/03/04 04:52:28;;;;;;;29.35;7.18;;;;;;;4.31;100.00;100097.63;4983680;28;20069;-71
2023/03/04 04:54:53;;;;;;;22.57;4.07;;;;;;;4.19;100.00;100051.16;4984377;28;20502;-71
2023/03/04 04:57:19;;;;;;;24.60;3.83;;;;;;;4.21;100.00;100059.78;4986032;28;20133;-71
2023/03/04 04:59:44;;;;;;;30.33;4.70;;;;;;;4.24;100.00;100019.88;4982613;28;20042;-71
2023/03/04 05:02:09;;;;;;;19.60;5.10;;;;;;;4.16;100.00;100002.06;4984400;28;20104;-71
2023/03/04 05:04:35;;;;;;;27.27;4.73;;;;;;;4.10;100.00;99959.56;4982781;28;20074;-71
2023/03/04 05:07:00;;;;;;;25.63;4.07;;;;;;;4.09;100.00;99963.97;4968796;28;20247;-71
2023/03/04 05:09:26;;;;;;;24.27;2.88;;;;;;;4.13;100.00;99970.66;4981301;28;20121;-71
2023/03/04 05:11:52;;;;;;;22.37;4.40;;;;;;;4.07;100.00;99931.56;4968157;28;20452;-71
2023/03/04 05:14:17;;;;;;;21.50;3.97;;;;;;;4.02;100.00;99862.50;4967192;28;20500;-72
2023/03/04 05:16:42;;;;;;;16.13;4.80;;;;;;;4.02;100.00;99862.50;4982377;28;20088;-70
2023/03/04 05:19:08;;;;;;;20.07;5.70;;;;;;;3.97;100.00;99822.47;4968622;28;20464;-72
2023/03/04 05:21:33;;;;;;;21.60;4.70;;;;;;;3.96;100.00;99736.31;4983988;28;20089;-71
2023/03/04 05:23:58;;;;;;;26.57;4.67;;;;;;;3.89;100.00;99643.63;4965392;28;20049;-71
2023/03/04 05:26:24;;;;;;;22.37;3.60;;;;;;;3.95;100.00;99603.41;4981758;28;20332;-71
2023/03/04 05:28:49;;;;;;;26.10;5.27;;;;;;;3.87;100.00;99510.91;4982590;28;20042;-71
2023/03/04 05:31:16;;;;;;;23.73;4.87;;;;;;;3.84;100.00;99465.50;4967904;28;20469;-71
2023/03/04 05:33:42;;;;;;;26.10;4.90;;;;;;;3.87;100.00;99481.06;4968241;28;20076;-72
2023/03/04 05:36:09;;;;;;;20.05;3.97;;;;;;;3.88;100.00;99469.50;4982810;28;20105;-71
2023/03/04 05:38:34;;;;;;;21.95;3.95;;;;;;;3.71;100.00;99473.78;4977474;28;20516;-71
2023/03/04 05:41:03;;;;;;;20.70;3.10;;;;;;;3.81;100.00;99528.16;4985468;28;20093;-70
2023/03/04 05:43:29;;;;;;;18.02;3.75;;;;;;;3.78;100.00;99514.44;4979862;28;20046;-71
2023/03/04 05:45:55;;;;;;;22.15;3.63;;;;;;;3.73;100.00;99509.63;4985397;28;20546;-71
2023/03/04 05:48:20;;;;;;;26.20;4.20;;;;;;;3.70;100.00;99520.47;4967670;28;20101;-73
2023/03/04 05:50:46;;;;;;;25.17;4.03;;;;;;;3.75;100.00;99560.47;4985179;28;20381;-73
2023/03/04 05:53:12;;;;;;;27.83;5.20;;;;;;;3.75;100.00;99565.75;4985952;28;20035;-71
2023/03/04 05:55:37;;;;;;;29.27;3.67;;;;;;;3.68;100.00;99612.19;4983107;28;20030;-71
2023/03/04 05:58:03;;;;;;;21.63;4.20;;;;;;;3.73;100.00;99603.81;4967946;28;20121;-72
2023/03/04 06:00:28;;;;;;;20.52;3.95;;;;;;;3.70;100.00;99604.94;4981369;28;20282;-71
2023/03/04 06:02:54;;;;;;;18.67;3.75;;;;;;;3.61;100.00;99626.94;4983674;28;20081;-71
2023/03/04 06:05:20;;;;;;;22.38;4.60;;;;;;;3.64;100.00;99613.44;4985050;28;20085;-71
2023/03/04 06:07:46;;;;;;;17.38;3.10;;;;;;;3.64;100.00;99600.25;4985062;28;20041;-74
2023/03/04 06:10:14;;;;;;;19.00;3.65;;;;;;;3.75;100.00;99613.25;4951598;28;20042;-73
2023/03/04 06:12:40;;;;;;;21.48;2.78;;;;;;;3.67;100.00;99562.16;4979541;28;20562;-72
2023/03/04 06:15:08;;;;;;;20.38;3.13;;;;;;;3.64;100.00;99528.16;4985386;28;20137;-75
2023/03/04 06:17:34;;;;;;;19.38;3.78;;;;;;;3.63;100.00;99534.41;4967334;28;20034;-72
2023/03/04 06:20:00;;;;;;;35.17;5.30;;;;;;;3.62;100.00;99544.13;4968045;28;20037;-72
2023/03/04 06:22:26;;;;;;;16.30;3.17;;;;;;;3.62;100.00;99551.22;4981648;28;20122;-72
2023/03/04 06:24:52;;;;;;;16.90;2.90;;;;;;;3.66;100.00;99524.38;4973219;28;20137;-73
2023/03/04 06:27:17;;;;;;;22.07;3.73;;;;;;;3.64;100.00;99515.78;4971732;28;20285;-73
2023/03/04 06:29:43;;;;;;;16.53;2.63;;;;;;;3.57;100.00;99496.25;4971503;28;20490;-72
2023/03/04 06:32:08;;;;;;;14.73;3.38;;;;;;;3.54;100.00;99557.25;4987280;28;20042;-72
2023/03/04 06:34:35;;;;;;;9.97;2.17;;;;;;;3.56;100.00;99616.00;4988820;28;20041;-73
2023/03/04 06:37:00;;;;;;;18.20;3.15;;;;;;;3.57;100.00;99634.31;4987230;28;20415;-73
2023/03/04 06:39:26;;;;;;;17.83;2.58;;;;;;;3.58;100.00;99665.00;4985771;28;20049;-72
2023/03/04 06:41:52;;;;;;;18.13;2.97;;;;;;;3.61;100.00;99679.72;4986769;28;20022;-73
2023/03/04 06:44:17;;;;;;;12.77;2.63;;;;;;;3.68;100.00;99709.84;4985765;28;20152;-72
2023/03/04 06:46:43;;;;;;;21.67;3.13;;;;;;;3.61;100.00;99681.53;4971000;28;20034;-73
2023/03/04 06:49:08;;;;;;;13.98;3.80;;;;;;;3.59;100.00;99586.66;4988636;28;20045;-73
2023/03/04 06:51:34;;;;;;;19.13;2.42;;;;;;;3.63;100.00;99566.94;4984958;28;20038;-72
2023/03/04 06:53:59;;;;;;;17.07;3.30;;;;;;;3.63;100.00;99494.81;4968217;28;20077;-72
2023/03/04 06:56:24;;;;;;;20.40;3.07;;;;;;;3.65;100.00;99461.19;4970900;28;20406;-73
2023/03/04 06:58:50;;;;;;;23.67;4.77;;;;;;;3.59;100.00;99392.19;4987601;28;20192;-72
2023/03/04 07:01:23;;;;;;;21.73;3.22;;;;;;;3.62;100.00;99379.66;4969855;28;20038;-74
2023/03/04 07:03:50;;;;;;;24.60;3.53;;;;;;;3.64;100.00;99367.16;4979089;28;20398;-72
2023/03/04 07:06:19;;;;;;;22.58;3.10;;;;;;;3.61;100.00;99360.38;4971065;28;20023;-74
2023/03/04 07:08:44;;;;;;;23.70;3.58;;;;;;;3.56;100.00;99318.59;4986656;28;20038;-71
2023/03/04 07:11:10;;;;;;;17.40;3.20;;;;;;;3.50;100.00;99273.50;4988720;28;20045;-72
2023/03/04 07:13:39;;;;;;;29.75;4.10;;;;;;;3.54;100.00;99224.72;4985090;28;20035;-75
2023/03/04 07:16:06;;;;;;;21.25;3.97;;;;;;;3.51;100.00;99159.91;4970421;28;20109;-71
2023/03/04 07:18:32;;;;;;;36.83;5.00;;;;;;;3.53;100.00;99151.81;4954731;28;20038;-72
2023/03/04 07:20:57;;;;;;;17.20;4.05;;;;;;;3.58;100.00;99181.19;4970600;28;20030;-72
2023/03/04 07:23:22;;;;;;;20.83;4.80;;;;;;;3.65;100.00;99184.84;4988330;28;20381;-72
2023/03/04 07:25:49;;;;;;;20.67;3.97;;;;;;;3.61;100.00;99157.16;4983602;28;20289;-73
2023/03/04 07:28:14;;;;;;;;;;;;;;;3.69;100.00;99233.72;4971787;28;20038;-71
2023/03/04 07:30:39;;;;;;;28.17;4.82;;;;;;;3.66;100.00;99271.00;4954762;28;20560;-72
2023/03/04 07:33:05;;;;;;;27.10;5.33;;;;;;;3.66;100.00;99339.63;4984763;28;20038;-71
2023/03/04 07:35:30;;;;;;;18.17;5.17;;;;;;;3.72;100.00;99385.69;4986930;28;20117;-73
2023/03/04 07:37:56;;;;;;;25.17;4.50;;;;;;;3.76;100.00;99435.38;4974996;28;20285;-73
2023/03/04 07:40:21;;;;;;;26.30;4.23;;;;;;;3.76;100.00;99355.38;4984380;28;20436;-74
2023/03/04 07:42:50;;;;;;;29.80;4.57;;;;;;;3.81;100.00;99405.91;4984597;28;20066;-72
2023/03/04 07:45:16;;;;;;;21.50;4.20;;;;;;;3.80;100.00;99360.19;4988145;28;20121;-75
2023/03/04 07:47:41;;;;;;;36.45;5.03;;;;;;;3.95;100.00;99343.78;4971193;28;20126;-73
2023/03/04 07:50:08;;;;;;;30.83;5.27;;;;;;;4.13;100.00;99330.56;4967803;28;20073;-73
2023/03/04 07:52:37;;;;;;;24.10;4.05;;;;;;;4.22;100.00;99245.91;4967711;28;20065;-72
2023/03/04 07:55:03;;;;;;;27.30;5.00;;;;;;;4.29;100.00;99144.88;4984019;28;20464;-73
2023/03/04 07:57:28;;;;;;;27.65;5.13;;;;;;;4.37;100.00;99136.97;4971131;28;20109;-72
2023/03/04 07:59:53;;;;;;;24.47;3.97;;;;;;;4.25;100.00;99065.13;4983881;28;20034;-72
2023/03/04 08:02:19;;;;;;;27.30;5.93;;;;;;;4.30;100.00;99146.53;4988017;28;20109;-72
2023/03/04 08:04:44;;;;;;;31.83;5.72;;;;;;;4.10;100.00;99115.13;4987570;28;20062;-72
2023/03/04 08:07:09;;;;;;;22.63;4.37;;;;;;;4.11;100.00;99180.16;4970080;28;20407;-72
2023/03/04 08:09:35;;;;;;;32.70;4.70;;;;;;;3.97;100.00;99130.56;4985343;28;20193;-73
2023/03/04 08:12:00;;;;;;;28.27;4.63;;;;;;;3.96;100.00;99098.06;4985622;28;20184;-74
2023/03/04 08:14:26;;;;;;;24.20;3.63;;;;;;;3.93;100.00;99024.47;4982163;28;20069;-74
2023/03/04 08:16:51;;;;;;;26.53;4.17;;;;;;;3.94;100.00;99043.78;4985473;28;20546;-74
2023/03/04 08:19:16;;;;;;;29.97;4.97;;;;;;;4.13;100.00;99162.31;4985565;28;20034;-72
2023/03/04 08:21:42;;;;;;;26.03;4.63;;;;;;;4.07;100.00;99070.50;4985780;28;20100;-72
2023/03/04 08:24:09;;;;;;;25.10;4.77;;;;;;;4.20;100.00;99179.19;4953690;28;20030;-72
2023/03/04 08:26:40;;;;;;;21.25;4.45;;;;;;;4.03;100.00;99019.03;4984949;28;20460;-72
2023/03/04 08:29:05;;;;;;;23.40;4.90;;;;;;;4.09;100.00;99023.66;4985029;28;20505;-72
2023/03/04 08:31:31;;;;;;;19.67;4.10;;;;;;;4.12;100.00;99028.63;4977368;28;20108;-75
2023/03/04 08:33:57;;;;;;;27.83;4.18;;;;;;;4.30;100.00;99070.72;4982875;28;20078;-72
2023/03/04 08:36:22;;;;;;;32.10;5.63;;;;;;;4.30;100.00;99054.88;4968872;28;20128;-72
2023/03/04 08:38:48;;;;;;;29.57;5.13;;;;;;;4.20;100.00;99002.19;4969438;28;20064;-72
2023/03/04 08:41:14;;;;;;;32.78;7.25;;;;;;;4.11;100.00;98955.66;4986946;28;20034;-73
2023/03/04 08:43:40;;;;;;;;;;;;;;;4.18;100.00;99030.59;4985211;28;20041;-73
2023/03/04 08:46:05;;;;;;;19.77;4.90;;;;;;;4.25;100.00;99093.34;4986473;28;20405;-71
2023/03/04 08:48:31;;;;;;;29.02;5.28;;;;;;;4.25;100.00;99075.69;4984413;28;20092;-74
2023/03/04 08:50:56;;;;;;;30.60;5.05;;;;;;;4.30;100.00;99091.88;4982259;28;20061;-73
2023/03/04 08:53:21;;;;;;;33.03;5.17;;;;;;;4.40;100.00;99041.50;4983235;28;20070;-72
2023/03/04 08:55:47;;;;;;;27.30;4.10;;;;;;;4.11;100.00;98879.06;4983857;28;20665;-72
2023/03/04 08:58:13;;;;;;;19.63;3.90;;;;;;;4.26;100.00;98968.19;4984597;28;20049;-72
2023/03/04 09:00:42;;;;;;;20.60;4.28;;;;;;;4.21;100.00;98863.88;4982071;28;20038;-73
2023/03/04 09:03:10;;;;;;;24.50;6.20;;;;;;;4.27;100.00;98808.72;4985150;28;20038;-71
2023/03/04 09:05:36;;;;;;;32.10;5.78;;;;;;;4.32;100.00;98754.34;4983913;28;20129;-73
2023/03/04 09:08:01;;;;;;;18.87;4.40;;;;;;;4.15;100.00;98584.56;4982753;28;20109;-72
2023/03/04 09:10:33;;;;;;;24.17;4.32;;;;;;;4.58;100.00;98796.38;5048366;28;20411;-71
2023/03/04 09:13:00;;;;;;;22.77;5.07;;;;;;;4.77;97.73;98565.13;5045434;28;20026;-72
2023/03/04 09:15:26;;;;;;;17.92;4.15;;;;;;;4.75;97.10;98518.72;5036735;28;20283;-72
2023/03/04 09:17:52;;;;;;;15.20;3.53;;;;;;;4.53;96.01;98373.25;5032006;28;20407;-71
2023/03/04 09:20:18;;;;;;;20.17;3.45;;;;;;;4.28;95.66;98325.13;5020369;28;20387;-72
2023/03/04 09:22:43;;;;;;;20.02;3.20;;;;;;;4.46;96.16;98485.94;5030666;28;20101;-71
2023/03/04 09:25:14;;;;;;;26.17;4.90;;;;;;;4.38;95.44;98404.13;5016721;28;20569;-72
2023/03/04 09:27:40;;;;;;;29.08;3.88;;;;;;;4.46;95.66;98485.94;5013501;28;20066;-72
2023/03/04 09:30:07;;;;;;;21.00;4.22;;;;;;;4.49;95.93;98527.84;5017203;28;20036;-74
2023/03/04 09:32:32;;;;;;;24.33;3.75;;;;;;;4.57;96.55;98622.94;5014685;28;20395;-71
2023/03/04 09:34:57;;;;;;;30.27;4.95;;;;;;;4.74;96.49;98695.03;5020497;28;20024;-71
2023/03/04 09:37:23;;;;;;;20.07;3.70;;;;;;;4.94;96.28;98723.63;5015738;28;20345;-71
2023/03/04 09:39:49;;;;;;;23.17;4.13;;;;;;;5.39;95.47;98774.91;5020129;28;20032;-71
2023/03/04 09:42:24;;;;;;;20.35;3.20;;;;;;;5.54;94.13;98639.97;5016418;28;20030;-71
2023/03/04 09:44:51;;;;;;;21.08;3.80;;;;;;;5.35;93.01;98453.44;5033418;28;20353;-72
2023/03/04 09:47:19;;;;;;;22.92;3.70;;;;;;;5.01;92.88;98371.03;5018214;28;20583;-71
2023/03/04 09:49:50;;;;;;;17.02;3.13;;;;;;;4.81;93.05;98343.53;5016140;28;20468;-71
2023/03/04 09:52:51;;;;;;;13.77;4.40;;;;;;;4.88;92.76;98405.22;5015942;28;20615;-73
2023/03/04 09:55:32;;;;;;;19.60;4.07;;;;;;;4.91;93.16;98467.50;5015635;28;20084;-72
2023/03/04 09:58:14;;;;;;;17.63;4.00;;;;;;;4.67;93.14;98410.44;5017018;28;20036;-75
2023/03/04 10:00:50;;;;;;;25.45;6.07;;;;;;;4.77;94.62;98625.09;5018114;28;20125;-72
2023/03/04 10:03:26;;;;;;;22.52;3.00;;;;;;;4.54;94.23;98512.31;5020633;28;20541;-73
2023/03/04 10:05:58;;;;;;;21.70;4.40;;;;;;;4.62;94.64;98588.06;5020374;28;20038;-71
2023/03/04 10:08:32;;;;;;;26.75;5.15;;;;;;;4.73;94.39;98629.09;5021200;28;20049;-71
2023/03/04 10:10:59;;;;;;;19.75;3.67;;;;;;;4.84;94.01;98626.84;5020389;28;20049;-71
2023/03/04 10:13:35;;;;;;;23.20;3.60;;;;;;;4.82;93.05;98514.34;5020040;28;20021;-71
2023/03/04 10:16:04;;;;;;;8.77;2.15;;;;;;;4.61;93.66;98515.88;5017312;28;20038;-74
2023/03/04 10:18:35;;;;;;;16.85;3.88;;;;;;;4.60;93.65;98551.22;5020398;28;20021;-72
2023/03/04 10:21:04;;;;;;;24.60;5.15;;;;;;;4.97;94.46;98736.53;5008968;28;20542;-71
2023/03/04 10:23:32;;;;;;;22.67;5.32;;;;;;;4.67;94.22;98606.03;5001345;28;20080;-74
2023/03/04 10:26:08;;;;;;;24.98;5.47;;;;;;;4.65;94.19;98651.13;4986363;28;20110;-75
2023/03/04 10:28:34;;;;;;;16.80;4.07;;;;;;;4.78;95.07;98794.16;5005741;28;20034;-74
2023/03/04 10:31:27;;;;;;;22.25;3.88;;;;;;;4.79;94.41;98718.28;5007833;28;20033;-74
2023/03/04 10:33:53;;;;;;;26.52;4.50;;;;;;;4.91;95.03;98837.69;5005997;28;20348;-73
2023/03/04 10:36:29;;;;;;;26.00;3.47;;;;;;;4.97;94.28;98755.84;5004440;28;20026;-75
2023/03/04 10:39:01;;;;;;;22.27;4.22;;;;;;;4.69;93.63;98559.09;5005124;28;20032;-75
2023/03/04 10:41:29;;;;;;;17.15;4.03;;;;;;;4.88;94.48;98764.84;5001200;28;20491;-73
2023/03/04 10:44:16;;;;;;;24.52;3.63;;;;;;;4.99;94.62;98838.50;5002869;28;20084;-74
2023/03/04 10:46:46;;;;;;;19.50;3.97;;;;;;;5.03;94.58;98842.44;5002090;28;20053;-74
2023/03/04 10:49:15;;;;;;;17.33;3.92;;;;;;;4.76;93.92;98671.06;5006191;28;20045;-74
2023/03/04 10:51:45;;;;;;;25.05;4.35;;;;;;;4.64;94.83;98777.19;5002759;28;20199;-72
2023/03/04 10:54:30;;;;;;;28.35;4.43;;;;;;;4.89;96.31;99036.19;4990024;28;20041;-71
2023/03/04 10:57:04;;;;;;;20.88;4.22;;;;;;;4.84;96.51;99018.19;5022575;28;20921;-71
2023/03/04 10:59:40;;;;;;;20.38;4.85;;;;;;;4.82;96.97;99057.22;5001703;28;20034;-74
2023/03/04 11:02:26;;;;;;;27.27;5.25;;;;;;;4.95;97.72;99156.38;5003104;28;20038;-71
2023/03/04 11:05:03;;;;;;;;;;;;;;;4.89;97.17;99097.00;5022821;28;20030;-74
2023/03/04 11:07:29;;;;;;;19.52;3.28;;;;;;;4.92;97.70;99122.34;5006172;28;19913;-74
2023/03/04 11:09:54;;;;;;;27.30;3.43;;;;;;;5.06;98.23;99248.63;5005681;28;20067;-73
2023/03/04 11:12:30;;;;;;;22.97;4.37;;;;;;;4.56;98.89;99136.66;5002402;28;20173;-74
2023/03/04 11:14:56;;;;;;;;;;;;;;;4.73;100.00;99438.94;5006186;28;20311;-72
2023/03/04 11:17:27;;;;;;;31.85;4.32;;;;;;;4.60;100.00;99402.34;5004752;28;20299;-71
2023/03/04 11:20:01;;;;;;;26.90;5.13;;;;;;;4.76;100.00;99495.97;5004495;28;20026;-74
2023/03/04 11:22:30;;;;;;;24.52;4.03;;;;;;;4.85;100.00;99510.91;4985215;28;20499;-74
2023/03/04 11:25:04;;;;;;;23.33;5.10;;;;;;;5.07;100.00;99573.84;4986607;28;20061;-71
2023/03/04 11:27:49;;;;;;;20.02;5.88;;;;;;;5.25;100.00;99655.00;5001197;28;20045;-74